Time;durP1;ratioP1;P1;durP2;ratioP2;P2;SDS_P1;SDS_P2;PMS_P1;PMS_P2;Temp;Humidity;BMP_temperature;BMP_pressure;BME280_temperature;BME280_humidity;BME280_pressure;Samples;Min_cycle;Max_cycle;Signal;HPM_P1;HPM_P2
2022/03/27 00:00:59;;;;;;;;;;;;;;;22.07;32.97;96063.00;2048836;29;1176;-76
2022/03/27 00:02:01;;;;;;;;;;;;;;;22.08;33.10;96070.88;2048674;29;1147;-72
2022/03/27 00:03:05;;;;;;;;;;;;;;;22.10;33.11;96067.97;2049205;28;1175;-75
2022/03/27 00:04:07;;;;;;;;;;;;;;;22.10;33.43;96063.44;2044538;29;1497;-77
2022/03/27 00:05:10;;;;;;;;;;;;;;;22.10;33.87;96058.09;2044051;29;1494;-77
2022/03/27 00:06:11;;;;;;;;;;;;;;;22.09;33.28;96061.78;2049024;29;1693;-76
2022/03/27 00:07:16;;;;;;;;;;;;;;;22.10;33.31;96058.09;2041038;29;1015;-78
2022/03/27 00:08:18;;;;;;;;;;;;;;;22.12;33.57;96048.03;2047831;29;1469;-73
2022/03/27 00:09:19;;;;;;;;;;;;;;;22.13;33.06;96054.19;2048645;28;1983;-75
2022/03/27 00:10:21;;;;;;;;;;;;;;;22.12;33.56;96056.06;2047610;29;1090;-76
2022/03/27 00:11:26;;;;;;;;;;;;;;;22.12;33.81;96056.06;2037908;29;1472;-76
2022/03/27 00:12:27;;;;;;;;;;;;;;;22.14;33.93;96055.88;2041455;29;1200;-75
2022/03/27 00:13:29;;;;;;;;;;;;;;;22.16;33.50;96055.66;2043114;29;1708;-74
2022/03/27 00:14:31;;;;;;;;;;;;;;;22.13;32.86;96060.38;2048720;29;1071;-75
2022/03/27 00:15:32;;;;;;;;;;;;;;;22.15;33.41;96060.19;2048804;29;1096;-71
2022/03/27 00:16:34;;;;;;;;;;;;;;;22.16;33.27;96055.66;2049167;28;1100;-73
2022/03/27 00:17:36;;;;;;;;;;;;;;;22.15;32.62;96060.19;2048261;28;1456;-72
2022/03/27 00:18:38;;;;;;;;;;;;;;;22.13;33.23;96063.03;2048514;28;1722;-71
2022/03/27 00:19:40;;;;;;;;;;;;;;;22.12;33.09;96056.06;2049330;29;1708;-72
2022/03/27 00:20:41;;;;;;;;;;;;;;;22.11;33.09;96059.75;2050417;28;1003;-70
2022/03/27 00:21:44;;;;;;;;;;;;;;;22.10;33.06;96060.75;2050576;28;1059;-71
2022/03/27 00:22:46;;;;;;;;;;;;;;;22.09;33.01;96056.44;2044485;29;1576;-75
2022/03/27 00:23:48;;;;;;;;;;;;;;;22.09;33.06;96050.28;2049446;29;1677;-74
2022/03/27 00:24:49;;;;;;;;;;;;;;;22.10;33.25;96057.25;2049749;29;1499;-75
2022/03/27 00:25:51;;;;;;;;;;;;;;;22.12;33.25;96053.38;2049754;29;1180;-74
2022/03/27 00:26:53;;;;;;;;;;;;;;;22.12;33.65;96049.88;2047114;29;1638;-73
2022/03/27 00:27:54;;;;;;;;;;;;;;;22.12;33.34;96049.88;2042378;29;1586;-72
2022/03/27 00:28:56;;;;;;;;;;;;;;;22.12;33.86;96056.06;2048794;29;1337;-72
2022/03/27 00:29:58;;;;;;;;;;;;;;;22.11;32.97;96049.06;2049226;29;1993;-72
2022/03/27 00:31:01;;;;;;;;;;;;;;;22.13;33.25;96052.34;2041858;29;1514;-75
2022/03/27 00:32:03;;;;;;;;;;;;;;;22.21;32.97;96050.53;2050086;29;989;-75
2022/03/27 00:33:05;;;;;;;;;;;;;;;22.23;32.93;96048.50;2044223;29;1553;-74
2022/03/27 00:34:07;;;;;;;;;;;;;;;22.26;33.54;96048.13;2042598;29;1754;-72
2022/03/27 00:35:08;;;;;;;;;;;;;;;22.26;32.79;96048.94;2050168;28;1151;-73
2022/03/27 00:36:13;;;;;;;;;;;;;;;22.26;33.05;96040.91;2048437;29;1482;-72
2022/03/27 00:37:15;;;;;;;;;;;;;;;22.26;32.93;96037.41;2043334;29;1482;-73
2022/03/27 00:38:17;;;;;;;;;;;;;;;22.27;32.85;96037.19;2048452;28;1797;-73
2022/03/27 00:39:18;;;;;;;;;;;;;;;22.27;32.91;96031.84;2041642;29;1089;-73
2022/03/27 00:40:20;;;;;;;;;;;;;;;22.27;33.07;96036.38;2041484;29;1013;-74
2022/03/27 00:41:24;;;;;;;;;;;;;;;22.30;33.03;96035.97;2046881;29;1281;-75
2022/03/27 00:42:25;;;;;;;;;;;;;;;22.31;32.91;96034.97;2050315;28;1091;-72
2022/03/27 00:43:27;;;;;;;;;;;;;;;22.30;32.64;96035.97;2046892;29;1735;-70
2022/03/27 00:44:29;;;;;;;;;;;;;;;22.28;32.83;96040.69;2036269;29;1119;-70
2022/03/27 00:45:30;;;;;;;;;;;;;;;22.23;33.08;96035.13;2041396;29;1090;-70
2022/03/27 00:46:32;;;;;;;;;;;;;;;22.20;32.79;96033.66;2042103;29;1012;-70
2022/03/27 00:47:34;;;;;;;;;;;;;;;22.21;33.27;96034.47;2048853;28;2145;-73
2022/03/27 00:48:35;;;;;;;;;;;;;;;22.21;33.19;96031.81;2049865;28;1108;-76
2022/03/27 00:49:37;;;;;;;;;;;;;;;22.22;33.26;96017.38;2047673;28;1633;-77
2022/03/27 00:50:38;;;;;;;;;;;;;;;22.29;33.00;96028.97;2042099;29;2013;-72
2022/03/27 00:51:40;;;;;;;;;;;;;;;22.29;33.07;96028.97;2049788;28;1510;-73
2022/03/27 00:52:41;;;;;;;;;;;;;;;22.30;33.18;96035.97;2049247;29;1084;-74
2022/03/27 00:53:43;;;;;;;;;;;;;;;22.30;32.94;96034.13;2049182;29;1195;-71
2022/03/27 00:54:45;;;;;;;;;;;;;;;22.28;32.95;96030.84;2048242;28;1070;-71
2022/03/27 00:55:46;;;;;;;;;;;;;;;22.28;33.12;96027.31;2047308;29;1112;-72
2022/03/27 00:56:48;;;;;;;;;;;;;;;22.29;33.29;96023.63;2046725;29;1518;-73
2022/03/27 00:57:50;;;;;;;;;;;;;;;22.30;33.29;96026.09;2043946;29;1735;-69
2022/03/27 00:58:52;;;;;;;;;;;;;;;22.25;33.38;96015.16;2048330;28;1635;-69
2022/03/27 00:59:53;;;;;;;;;;;;;;;22.24;33.15;96023.38;2044994;29;1638;-72
2022/03/27 01:01:02;;;;;;;;;;;;;;;22.22;33.61;96022.75;2044527;29;1581;-71
2022/03/27 01:02:04;;;;;;;;;;;;;;;22.18;33.63;96013.47;2049050;29;1258;-72
2022/03/27 01:03:06;;;;;;;;;;;;;;;22.15;33.52;96016.53;2049920;28;1078;-71
2022/03/27 01:04:07;;;;;;;;;;;;;;;22.14;33.26;96021.06;2047974;29;1733;-72
2022/03/27 01:05:13;;;;;;;;;;;;;;;22.13;33.52;96019.41;2041807;29;1587;-72
2022/03/27 01:06:24;;;;;;;;;;;;;;;22.12;33.45;96018.56;2043908;28;1673;-71
2022/03/27 01:07:26;;;;;;;;;;;;;;;22.12;33.35;96018.56;2040722;29;1714;-71
2022/03/27 01:09:49;;;;;;;;;;;;;;;22.11;33.30;96011.59;2043223;29;1646;-71
2022/03/27 01:10:51;;;;;;;;;;;;;;;22.12;33.46;96015.06;2042627;29;1210;-70
2022/03/27 01:11:54;;;;;;;;;;;;;;;22.10;33.58;96015.25;2041957;29;1619;-70
2022/03/27 01:12:56;;;;;;;;;;;;;;;22.10;33.33;96011.75;2041942;29;1172;-73
2022/03/27 01:13:58;;;;;;;;;;;;;;;22.10;33.36;96017.13;2041372;29;995;-73
2022/03/27 01:14:59;;;;;;;;;;;;;;;22.10;33.49;96004.56;2041745;29;1137;-73
2022/03/27 01:16:02;;;;;;;;;;;;;;;22.10;33.48;96009.09;2048313;29;1568;-74
2022/03/27 01:17:10;;;;;;;;;;;;;;;22.10;33.63;96003.72;2044447;29;1155;-74
2022/03/27 01:18:14;;;;;;;;;;;;;;;22.11;33.27;96013.44;2041085;29;1259;-75
2022/03/27 01:19:16;;;;;;;;;;;;;;;22.10;33.30;96007.22;2042884;29;1791;-74
2022/03/27 01:20:22;;;;;;;;;;;;;;;22.09;33.14;96015.47;2040840;29;1654;-72
2022/03/27 01:21:23;;;;;;;;;;;;;;;22.09;33.37;96013.63;2041493;29;1119;-75
2022/03/27 01:22:25;;;;;;;;;;;;;;;22.09;33.39;96002.09;2045689;29;1712;-74
2022/03/27 01:23:27;;;;;;;;;;;;;;;22.09;33.71;96010.94;2049709;29;1024;-72
2022/03/27 01:24:28;;;;;;;;;;;;;;;22.08;33.60;96014.66;2048730;29;1639;-75
2022/03/27 01:25:30;;;;;;;;;;;;;;;22.08;33.37;96011.13;2049271;29;1061;-74
2022/03/27 01:26:32;;;;;;;;;;;;;;;22.08;33.53;96011.97;2049964;28;1036;-75
2022/03/27 01:27:34;;;;;;;;;;;;;;;22.09;33.40;96012.78;2049735;28;1163;-74
2022/03/27 01:28:35;;;;;;;;;;;;;;;22.08;33.52;96003.94;2042986;28;1610;-73
2022/03/27 01:29:37;;;;;;;;;;;;;;;22.08;33.37;96013.81;2047193;28;1647;-74
2022/03/27 01:30:39;;;;;;;;;;;;;;;22.08;33.81;96006.63;2048069;29;1962;-71
2022/03/27 01:31:41;;;;;;;;;;;;;;;22.08;33.52;96006.63;2048716;29;1557;-72
2022/03/27 01:32:42;;;;;;;;;;;;;;;22.09;33.62;96013.63;2041190;29;1551;-74
2022/03/27 01:33:44;;;;;;;;;;;;;;;22.07;33.47;96012.97;2047202;28;1617;-73
2022/03/27 01:34:47;;;;;;;;;;;;;;;22.08;33.42;96003.09;2048332;28;1437;-74
2022/03/27 01:35:52;;;;;;;;;;;;;;;22.07;33.60;96015.66;2049127;29;1697;-75
2022/03/27 01:36:54;;;;;;;;;;;;;;;22.08;33.49;96016.47;2047917;29;1660;-74
2022/03/27 01:37:55;;;;;;;;;;;;;;;22.08;33.68;96011.97;2049832;28;1003;-73
2022/03/27 01:38:57;;;;;;;;;;;;;;;22.07;33.72;96012.97;2044465;28;1533;-73
2022/03/27 01:39:58;;;;;;;;;;;;;;;22.08;33.59;96017.31;2049287;29;1321;-74
2022/03/27 01:41:00;;;;;;;;;;;;;;;22.08;33.49;96014.66;2049776;28;1104;-73
2022/03/27 01:42:03;;;;;;;;;;;;;;;22.07;33.40;96015.66;2049330;29;1807;-73
2022/03/27 01:43:04;;;;;;;;;;;;;;;22.07;33.68;96014.84;2044838;29;1153;-73
2022/03/27 01:44:08;;;;;;;;;;;;;;;22.08;33.37;96011.13;2040738;29;1146;-74
2022/03/27 01:45:10;;;;;;;;;;;;;;;22.09;33.42;96013.63;2040808;29;1125;-73
2022/03/27 01:46:11;;;;;;;;;;;;;;;22.10;33.50;96014.44;2041612;29;1179;-75
2022/03/27 01:47:13;;;;;;;;;;;;;;;22.09;33.70;96013.63;2045111;29;1697;-74
2022/03/27 01:48:15;;;;;;;;;;;;;;;22.08;33.60;96017.31;2049759;28;1208;-74
2022/03/27 01:49:18;;;;;;;;;;;;;;;22.09;33.43;96010.94;2047941;28;1636;-75
2022/03/27 01:50:20;;;;;;;;;;;;;;;22.10;33.37;96015.25;2044780;28;1903;-74
2022/03/27 01:51:21;;;;;;;;;;;;;;;22.09;33.54;96013.63;2049199;28;1719;-75
2022/03/27 01:52:23;;;;;;;;;;;;;;;22.10;33.43;96007.22;2048883;29;1074;-75
2022/03/27 01:53:24;;;;;;;;;;;;;;;22.11;33.44;96011.59;2042733;29;1468;-72
2022/03/27 01:54:26;;;;;;;;;;;;;;;22.15;33.24;96013.88;2042925;29;1499;-73
2022/03/27 01:55:28;;;;;;;;;;;;;;;22.11;33.86;96019.59;2049530;28;1074;-73
2022/03/27 01:56:30;;;;;;;;;;;;;;;22.11;33.75;96014.25;2046894;29;1697;-73
2022/03/27 01:57:31;;;;;;;;;;;;;;;22.10;33.72;96014.44;2047474;29;1927;-73
2022/03/27 01:58:36;;;;;;;;;;;;;;;22.09;33.82;96016.28;2040177;29;1207;-73
2022/03/27 01:59:37;;;;;;;;;;;;;;;22.07;33.72;96009.47;2041189;29;1004;-73
2022/03/27 02:00:42;;;;;;;;;;;;;;;22.06;33.64;96016.69;2042323;29;1496;-72
2022/03/27 02:01:43;;;;;;;;;;;;;;;22.07;33.67;96015.66;2041407;29;1576;-73
2022/03/27 02:02:46;;;;;;;;;;;;;;;22.06;33.51;96011.34;2049358;28;1100;-73
2022/03/27 02:03:48;;;;;;;;;;;;;;;22.07;33.63;96015.66;2049432;28;1117;-72
2022/03/27 02:04:50;;;;;;;;;;;;;;;22.07;33.40;96010.31;2047791;28;1473;-72
2022/03/27 02:05:52;;;;;;;;;;;;;;;22.06;33.51;96014.00;2048866;28;1730;-72
2022/03/27 02:06:54;;;;;;;;;;;;;;;22.06;33.63;96019.38;2047808;28;1671;-73
2022/03/27 02:07:55;;;;;;;;;;;;;;;22.06;33.68;96013.19;2047566;28;1732;-73
2022/03/27 02:09:17;;;;;;;;;;;;;;;22.05;33.82;96020.41;2040667;29;1827;-73
2022/03/27 02:10:18;;;;;;;;;;;;;;;22.06;33.74;96023.91;2041402;29;1698;-73
2022/03/27 02:11:20;;;;;;;;;;;;;;;22.05;33.76;96017.72;2044227;29;1911;-72
2022/03/27 02:12:22;;;;;;;;;;;;;;;22.06;33.68;96022.03;2044537;28;1054;-73
2022/03/27 02:13:23;;;;;;;;;;;;;;;22.05;33.87;96024.91;2047083;29;1501;-73
2022/03/27 02:14:25;;;;;;;;;;;;;;;22.06;33.54;96013.19;2048445;29;1109;-71
2022/03/27 02:15:26;;;;;;;;;;;;;;;22.05;33.78;96017.72;2047950;29;1526;-72
2022/03/27 02:16:28;;;;;;;;;;;;;;;22.05;33.93;96023.06;2042456;29;1657;-72
2022/03/27 02:17:30;;;;;;;;;;;;;;;22.06;33.88;96026.56;2047281;29;1636;-73
2022/03/27 02:18:32;;;;;;;;;;;;;;;22.04;33.94;96021.41;2049088;28;1171;-73
2022/03/27 02:19:35;;;;;;;;;;;;;;;22.05;33.86;96011.53;2048651;29;1116;-75
2022/03/27 02:20:37;;;;;;;;;;;;;;;22.05;34.02;96015.03;2046650;29;1733;-74
2022/03/27 02:21:39;;;;;;;;;;;;;;;22.05;34.30;96020.41;2041214;29;1161;-75
2022/03/27 02:22:41;;;;;;;;;;;;;;;22.06;33.98;96023.91;2041126;29;1701;-74
2022/03/27 02:23:43;;;;;;;;;;;;;;;22.07;33.88;96020.19;2036279;29;1200;-76
2022/03/27 02:24:44;;;;;;;;;;;;;;;22.08;34.03;96022.69;2044214;29;1478;-75
2022/03/27 02:25:46;;;;;;;;;;;;;;;22.08;34.04;96016.47;2049561;29;1093;-76
2022/03/27 02:26:49;;;;;;;;;;;;;;;22.07;33.89;96014.84;2047545;29;1837;-74
2022/03/27 02:27:51;;;;;;;;;;;;;;;22.07;34.08;96015.66;2049157;29;950;-75
2022/03/27 02:28:53;;;;;;;;;;;;;;;22.10;34.02;96014.44;2047810;28;1496;-75
2022/03/27 02:29:54;;;;;;;;;;;;;;;22.12;33.85;96023.09;2040740;29;1010;-75
2022/03/27 02:30:56;;;;;;;;;;;;;;;22.16;34.24;96021.69;2040736;29;1915;-75
2022/03/27 02:31:57;;;;;;;;;;;;;;;22.19;34.30;96023.97;2040838;29;959;-76
2022/03/27 02:32:59;;;;;;;;;;;;;;;22.17;34.40;96018.00;2041846;29;1068;-75
2022/03/27 02:34:01;;;;;;;;;;;;;;;22.19;34.23;96025.81;2038055;29;1505;-76
2022/03/27 02:35:02;;;;;;;;;;;;;;;22.19;34.18;96023.97;2048825;28;1608;-76
2022/03/27 02:36:08;;;;;;;;;;;;;;;22.18;33.93;96022.31;2049496;28;1695;-74
2022/03/27 02:37:10;;;;;;;;;;;;;;;22.19;34.13;96020.47;2046826;29;1647;-75
2022/03/27 02:38:12;;;;;;;;;;;;;;;22.18;34.62;96030.34;2050125;29;969;-76
2022/03/27 02:39:13;;;;;;;;;;;;;;;22.19;34.43;96031.16;2045337;29;1597;-76
2022/03/27 02:40:18;;;;;;;;;;;;;;;22.21;34.57;96029.13;2041736;29;1791;-75
2022/03/27 02:41:19;;;;;;;;;;;;;;;22.22;34.73;96028.09;2040579;29;1541;-72
2022/03/27 02:42:21;;;;;;;;;;;;;;;22.20;34.52;96032.84;2039926;29;1590;-73
2022/03/27 02:43:22;;;;;;;;;;;;;;;22.21;34.44;96034.47;2046687;29;1126;-74
2022/03/27 02:44:24;;;;;;;;;;;;;;;22.20;34.06;96032.84;2048536;29;1524;-76
2022/03/27 02:45:27;;;;;;;;;;;;;;;22.18;34.17;96033.03;2044274;29;1107;-75
2022/03/27 02:46:28;;;;;;;;;;;;;;;22.19;34.76;96036.53;2048777;29;1639;-72
2022/03/27 02:47:30;;;;;;;;;;;;;;;22.20;34.25;96038.19;2047000;28;1707;-75
2022/03/27 02:48:31;;;;;;;;;;;;;;;22.19;34.20;96034.66;2049686;29;1095;-76
2022/03/27 02:49:33;;;;;;;;;;;;;;;22.19;34.39;96039.19;2049266;28;1822;-75
2022/03/27 02:50:37;;;;;;;;;;;;;;;22.18;34.21;96034.88;2049897;28;1027;-75
2022/03/27 02:51:39;;;;;;;;;;;;;;;22.18;34.01;96037.56;2044564;28;1997;-76
2022/03/27 02:52:41;;;;;;;;;;;;;;;22.19;34.85;96036.53;2041813;29;1057;-75
2022/03/27 02:53:43;;;;;;;;;;;;;;;22.20;34.75;96035.53;2043411;29;1810;-76
2022/03/27 02:54:44;;;;;;;;;;;;;;;22.21;34.18;96042.50;2047849;29;1507;-76
2022/03/27 02:55:46;;;;;;;;;;;;;;;22.21;34.52;96043.34;2043347;28;1662;-75
2022/03/27 02:56:47;;;;;;;;;;;;;;;22.21;34.25;96037.97;2040811;29;1538;-75
2022/03/27 02:57:49;;;;;;;;;;;;;;;22.19;34.19;96040.03;2048377;28;1185;-73
2022/03/27 02:58:51;;;;;;;;;;;;;;;22.19;33.97;96044.56;2048124;28;1386;-73
2022/03/27 02:59:53;;;;;;;;;;;;;;;22.19;34.12;96041.88;2049260;28;1028;-72
2022/03/27 03:00:54;;;;;;;;;;;;;;;22.19;33.98;96044.56;2047381;28;1505;-73
2022/03/27 03:01:56;;;;;;;;;;;;;;;22.17;34.35;96042.09;2040612;29;1122;-73
2022/03/27 03:02:58;;;;;;;;;;;;;;;22.17;34.21;96041.25;2040274;29;1265;-72
2022/03/27 03:04:02;;;;;;;;;;;;;;;22.18;34.15;96042.91;2041248;29;1028;-72
2022/03/27 03:05:04;;;;;;;;;;;;;;;22.17;34.40;96038.56;2047574;29;1120;-72
2022/03/27 03:06:07;;;;;;;;;;;;;;;22.16;34.35;96042.28;2048157;29;1004;-73
2022/03/27 03:07:09;;;;;;;;;;;;;;;22.17;34.24;96046.59;2037815;29;1713;-72
2022/03/27 03:08:13;;;;;;;;;;;;;;;22.16;34.41;96048.44;2040779;29;1506;-73
2022/03/27 03:09:15;;;;;;;;;;;;;;;22.17;34.42;96046.59;2040862;29;1038;-73
2022/03/27 03:10:17;;;;;;;;;;;;;;;22.17;34.37;96046.59;2043907;29;1542;-73
2022/03/27 03:11:20;;;;;;;;;;;;;;;22.17;34.23;96051.94;2047092;28;1912;-73
2022/03/27 03:12:22;;;;;;;;;;;;;;;22.18;34.29;96050.94;2039616;29;1067;-73
2022/03/27 03:13:23;;;;;;;;;;;;;;;22.17;34.51;96043.91;2040949;29;950;-76
2022/03/27 03:14:25;;;;;;;;;;;;;;;22.18;34.38;96049.09;2041905;29;1874;-76
2022/03/27 03:15:27;;;;;;;;;;;;;;;22.18;34.34;96053.63;2041488;29;1642;-74
2022/03/27 03:16:29;;;;;;;;;;;;;;;22.18;34.35;96048.25;2040556;29;1068;-71
2022/03/27 03:17:31;;;;;;;;;;;;;;;22.18;34.02;96053.63;2045061;29;1546;-71
2022/03/27 03:18:36;;;;;;;;;;;;;;;22.18;34.47;96048.25;2044130;28;1108;-71
2022/03/27 03:19:38;;;;;;;;;;;;;;;22.17;34.42;96052.81;2048179;29;1101;-71
2022/03/27 03:20:40;;;;;;;;;;;;;;;22.17;34.37;96050.13;2047286;29;1476;-72
2022/03/27 03:21:42;;;;;;;;;;;;;;;22.17;34.50;96047.44;2048002;29;1056;-71
2022/03/27 03:22:44;;;;;;;;;;;;;;;22.19;34.24;96047.22;2048145;29;1163;-71
2022/03/27 03:23:46;;;;;;;;;;;;;;;22.20;34.53;96056.94;2040466;29;1105;-72
2022/03/27 03:24:47;;;;;;;;;;;;;;;22.19;34.48;96050.72;2048303;29;1522;-72
2022/03/27 03:25:49;;;;;;;;;;;;;;;22.19;34.58;96044.56;2048352;28;1660;-72
2022/03/27 03:27:08;;;;;;;;;;;;;;;22.19;34.25;96047.22;2047767;29;1037;-71
2022/03/27 03:28:10;;;;;;;;;;;;;;;22.18;34.59;96040.22;2048350;29;1078;-71
2022/03/27 03:29:11;;;;;;;;;;;;;;;22.13;34.51;96035.47;2043902;28;1648;-72
2022/03/27 03:30:13;;;;;;;;;;;;;;;22.19;34.54;96052.59;2047440;29;1465;-71
2022/03/27 03:31:15;;;;;;;;;;;;;;;22.19;34.65;96045.38;2047883;29;1902;-72
2022/03/27 03:32:16;;;;;;;;;;;;;;;22.18;34.64;96045.59;2048149;29;1159;-72
2022/03/27 03:33:21;;;;;;;;;;;;;;;22.15;34.61;96044.13;2048112;29;1125;-72
2022/03/27 03:34:23;;;;;;;;;;;;;;;22.14;34.62;96045.16;2048879;28;1147;-72
2022/03/27 03:35:24;;;;;;;;;;;;;;;22.11;34.88;96033.00;2047378;28;1669;-72
2022/03/27 03:36:43;;;;;;;;;;;;;;;22.10;34.72;96044.69;2040882;29;1511;-71
2022/03/27 03:37:45;;;;;;;;;;;;;;;22.10;34.93;96043.88;2041020;29;1634;-71
2022/03/27 03:38:47;;;;;;;;;;;;;;;22.10;34.59;96046.56;2040992;29;1106;-72
2022/03/27 03:39:49;;;;;;;;;;;;;;;22.10;34.80;96051.91;2040231;29;1187;-71
2022/03/27 03:40:50;;;;;;;;;;;;;;;22.08;35.00;96037.88;2040570;29;1693;-72
2022/03/27 03:41:52;;;;;;;;;;;;;;;22.09;34.78;96045.75;2048251;29;1528;-72
2022/03/27 03:42:57;;;;;;;;;;;;;;;22.09;34.93;96045.75;2049041;28;1514;-72
2022/03/27 03:43:59;;;;;;;;;;;;;;;22.09;34.99;96045.75;2047879;29;1651;-72
2022/03/27 03:45:01;;;;;;;;;;;;;;;22.08;35.04;96044.09;2040406;29;1675;-72
2022/03/27 03:46:03;;;;;;;;;;;;;;;22.08;34.73;96049.44;2040989;29;1701;-72
2022/03/27 03:47:05;;;;;;;;;;;;;;;22.08;34.98;96049.44;2040216;29;995;-73
2022/03/27 03:48:06;;;;;;;;;;;;;;;22.07;34.85;96053.13;2040083;29;1069;-72
2022/03/27 03:49:08;;;;;;;;;;;;;;;22.09;34.94;96056.44;2040093;29;1113;-72
2022/03/27 03:50:10;;;;;;;;;;;;;;;22.09;34.89;96055.63;2040269;29;1431;-71
2022/03/27 03:51:12;;;;;;;;;;;;;;;22.09;34.82;96050.28;2043908;29;1115;-73
2022/03/27 03:52:13;;;;;;;;;;;;;;;22.09;34.95;96048.41;2047698;29;1898;-71
2022/03/27 03:53:16;;;;;;;;;;;;;;;22.09;35.07;96056.44;2044090;28;1577;-73
2022/03/27 03:54:18;;;;;;;;;;;;;;;22.11;35.06;96056.25;2042664;29;1145;-72
2022/03/27 03:55:20;;;;;;;;;;;;;;;22.11;34.82;96059.75;2043121;29;1707;-73
2022/03/27 03:56:21;;;;;;;;;;;;;;;22.10;34.98;96055.41;2049909;28;1509;-71
2022/03/27 03:57:23;;;;;;;;;;;;;;;22.11;35.10;96054.41;2049852;28;1128;-72
2022/03/27 03:58:25;;;;;;;;;;;;;;;22.11;35.18;96054.41;2050364;28;995;-72
2022/03/27 03:59:28;;;;;;;;;;;;;;;22.11;35.12;96054.41;2049760;29;1160;-74
2022/03/27 04:00:31;;;;;;;;;;;;;;;22.12;34.92;96055.22;2048445;29;1562;-75
2022/03/27 04:01:33;;;;;;;;;;;;;;;22.13;35.09;96051.50;2035688;29;1579;-72
2022/03/27 04:02:35;;;;;;;;;;;;;;;22.17;35.18;96054.63;2044992;28;1023;-73
2022/03/27 04:03:36;;;;;;;;;;;;;;;22.19;34.81;96056.09;2050244;29;1160;-74
2022/03/27 04:04:38;;;;;;;;;;;;;;;22.21;34.65;96059.41;2049145;29;1219;-72
2022/03/27 04:05:40;;;;;;;;;;;;;;;22.24;34.77;96058.19;2047017;29;1288;-74
2022/03/27 04:06:41;;;;;;;;;;;;;;;22.24;34.45;96059.00;2046905;28;1360;-72
2022/03/27 04:07:43;;;;;;;;;;;;;;;22.24;34.77;96063.53;2047124;29;1689;-76
2022/03/27 04:08:44;;;;;;;;;;;;;;;22.22;34.67;96065.56;2052639;28;1588;-74
2022/03/27 04:09:46;;;;;;;;;;;;;;;22.19;34.72;96064.13;2051232;29;1518;-78
2022/03/27 04:10:48;;;;;;;;;;;;;;;22.18;35.00;96062.47;2047646;29;1507;-77
2022/03/27 04:11:50;;;;;;;;;;;;;;;22.19;34.74;96076.69;2050296;28;1902;-76
2022/03/27 04:12:51;;;;;;;;;;;;;;;22.19;34.76;96066.78;2050542;29;1157;-76
2022/03/27 04:13:53;;;;;;;;;;;;;;;22.19;34.68;96071.31;2043083;28;1297;-74
2022/03/27 04:14:55;;;;;;;;;;;;;;;22.19;34.53;96074.00;2044986;29;1192;-74
2022/03/27 04:15:56;;;;;;;;;;;;;;;22.18;34.68;96069.69;2046986;29;1607;-70
2022/03/27 04:16:58;;;;;;;;;;;;;;;22.16;34.99;96071.72;2044627;29;1287;-75
2022/03/27 04:18:00;;;;;;;;;;;;;;;22.16;34.58;96077.06;2046075;29;1235;-75
2022/03/27 04:19:02;;;;;;;;;;;;;;;22.15;34.82;96078.09;2044813;29;1243;-75
2022/03/27 04:20:04;;;;;;;;;;;;;;;22.14;34.48;96079.97;2045751;29;1242;-74
2022/03/27 04:21:06;;;;;;;;;;;;;;;22.14;34.53;96082.63;2047289;29;1525;-75
2022/03/27 04:22:08;;;;;;;;;;;;;;;22.11;34.75;96080.34;2049778;28;1470;-75
2022/03/27 04:23:09;;;;;;;;;;;;;;;22.11;34.83;96077.69;2049307;29;1678;-74
2022/03/27 04:24:11;;;;;;;;;;;;;;;22.11;34.48;96080.34;2045169;28;1048;-74
2022/03/27 04:25:15;;;;;;;;;;;;;;;22.09;34.72;96083.22;2048629;28;1672;-72
2022/03/27 04:26:17;;;;;;;;;;;;;;;22.09;34.59;96083.22;2048520;29;1662;-75
2022/03/27 04:27:18;;;;;;;;;;;;;;;22.09;34.72;96080.53;2041575;29;1156;-76
2022/03/27 04:28:20;;;;;;;;;;;;;;;22.09;34.53;96088.56;2049770;29;1035;-72
2022/03/27 04:29:21;;;;;;;;;;;;;;;22.08;34.53;96086.91;2050247;29;1462;-74
2022/03/27 04:30:23;;;;;;;;;;;;;;;22.07;34.42;96079.91;2049518;28;1537;-72
2022/03/27 04:31:25;;;;;;;;;;;;;;;22.08;34.59;96076.22;2049694;29;1028;-73
2022/03/27 04:32:26;;;;;;;;;;;;;;;22.10;34.88;96084.84;2050182;28;1993;-69
2022/03/27 04:33:28;;;;;;;;;;;;;;;22.15;34.14;96083.47;2050069;28;1036;-69
2022/03/27 04:34:29;;;;;;;;;;;;;;;22.14;33.86;96088.00;2049352;28;1101;-70
2022/03/27 04:35:31;;;;;;;;;;;;;;;22.13;32.47;96080.97;2043946;28;1439;-70
2022/03/27 04:36:33;;;;;;;;;;;;;;;22.13;33.35;96089.81;2049610;28;1543;-70
2022/03/27 04:37:41;;;;;;;;;;;;;;;22.12;33.52;96088.16;2049856;28;1381;-68
2022/03/27 04:38:42;;;;;;;;;;;;;;;22.11;33.66;96085.72;2044104;29;1751;-70
2022/03/27 04:39:44;;;;;;;;;;;;;;;22.11;33.69;96086.53;2041892;29;1155;-70
2022/03/27 04:40:46;;;;;;;;;;;;;;;22.11;33.77;96091.88;2044260;29;1483;-70
2022/03/27 04:41:47;;;;;;;;;;;;;;;22.11;33.86;96091.06;2048507;28;1539;-71
2022/03/27 04:42:49;;;;;;;;;;;;;;;22.11;33.73;96091.88;2047127;28;1525;-70
2022/03/27 04:43:50;;;;;;;;;;;;;;;22.11;33.76;96096.41;2041552;29;1109;-70
2022/03/27 04:44:52;;;;;;;;;;;;;;;22.10;33.92;96100.09;2041204;29;1183;-71
2022/03/27 04:45:53;;;;;;;;;;;;;;;22.09;33.89;96099.28;2044372;29;1682;-70
2022/03/27 04:46:55;;;;;;;;;;;;;;;22.09;33.89;96101.94;2036730;29;1630;-70
2022/03/27 04:47:57;;;;;;;;;;;;;;;22.10;33.95;96110.81;2046971;29;1410;-70
2022/03/27 04:48:59;;;;;;;;;;;;;;;22.08;33.91;96102.97;2048173;29;1550;-71
2022/03/27 04:50:01;;;;;;;;;;;;;;;22.08;33.88;96111.00;2049606;29;1029;-70
2022/03/27 04:51:02;;;;;;;;;;;;;;;20.21;22.71;96109.84;2048448;28;1537;-69
2022/03/27 04:52:04;;;;;;;;;;;;;;;18.35;22.73;96105.50;2049073;29;1902;-69
2022/03/27 04:53:06;;;;;;;;;;;;;;;17.12;23.77;96116.97;2048694;29;1548;-69
2022/03/27 04:54:07;;;;;;;;;;;;;;;16.29;24.71;96112.31;2049953;28;1007;-69
2022/03/27 04:55:09;;;;;;;;;;;;;;;15.60;25.54;96115.81;2049932;28;1059;-69
2022/03/27 04:56:10;;;;;;;;;;;;;;;15.23;25.72;96113.34;2048312;29;1519;-69
2022/03/27 04:57:12;;;;;;;;;;;;;;;15.21;25.67;96120.59;2045317;29;1057;-69
2022/03/27 04:58:15;;;;;;;;;;;;;;;14.82;25.96;96124.31;2048852;29;1045;-69
2022/03/27 04:59:17;;;;;;;;;;;;;;;14.65;25.96;96123.31;2045230;29;1843;-69
2022/03/27 05:00:18;;;;;;;;;;;;;;;14.46;26.58;96132.16;2043072;29;1640;-69
2022/03/27 05:01:20;;;;;;;;;;;;;;;14.41;26.78;96126.47;2048665;29;1574;-69
2022/03/27 05:02:23;;;;;;;;;;;;;;;13.93;27.13;96129.25;2047789;29;1477;-69
2022/03/27 05:03:24;;;;;;;;;;;;;;;13.87;27.58;96124.56;2049406;28;1175;-69
2022/03/27 05:04:26;;;;;;;;;;;;;;;14.01;27.69;96126.75;2046222;28;1685;-70
2022/03/27 05:05:28;;;;;;;;;;;;;;;13.95;27.28;96125.50;2044191;29;1515;-69
2022/03/27 05:06:29;;;;;;;;;;;;;;;13.43;28.24;96126.78;2046176;29;1658;-69
2022/03/27 05:07:31;;;;;;;;;;;;;;;13.49;27.88;96131.53;2048311;28;1405;-69
2022/03/27 05:08:33;;;;;;;;;;;;;;;12.89;28.87;96134.25;2043892;29;1010;-69
2022/03/27 05:09:34;;;;;;;;;;;;;;;12.90;29.21;96141.19;2049304;29;1032;-69
2022/03/27 05:10:36;;;;;;;;;;;;;;;13.00;28.63;96136.75;2049155;28;1625;-69
2022/03/27 05:11:38;;;;;;;;;;;;;;;12.78;28.77;96139.66;2046699;28;1594;-69
2022/03/27 05:12:40;;;;;;;;;;;;;;;12.36;29.34;96147.69;2041850;29;1907;-69
2022/03/27 05:13:41;;;;;;;;;;;;;;;12.41;29.57;96140.22;2042612;29;1695;-69
2022/03/27 05:14:43;;;;;;;;;;;;;;;12.28;29.91;96143.06;2048214;29;1480;-69
2022/03/27 05:15:45;;;;;;;;;;;;;;;12.62;29.42;96148.88;2047095;29;1730;-69
2022/03/27 05:16:46;;;;;;;;;;;;;;;13.02;29.41;96141.91;2046379;28;1665;-69
2022/03/27 05:17:55;;;;;;;;;;;;;;;13.06;28.87;96146.78;2047918;29;1517;-69
2022/03/27 05:18:56;;;;;;;;;;;;;;;13.08;28.76;96149.28;2049024;28;1579;-69
2022/03/27 05:19:58;;;;;;;;;;;;;;;13.01;28.95;96143.72;2044243;28;1470;-69
2022/03/27 05:21:01;;;;;;;;;;;;;;;12.93;28.91;96146.19;2049218;29;1684;-69
2022/03/27 05:22:03;;;;;;;;;;;;;;;13.11;28.62;96146.34;2046512;29;1546;-69
2022/03/27 05:23:05;;;;;;;;;;;;;;;13.18;28.48;96145.69;2039389;29;1633;-68
2022/03/27 05:24:09;;;;;;;;;;;;;;;13.12;29.07;96150.69;2048841;29;1167;-68
2022/03/27 05:25:11;;;;;;;;;;;;;;;13.31;28.76;96149.84;2049585;28;1047;-69
2022/03/27 05:26:13;;;;;;;;;;;;;;;13.49;28.77;96147.38;2048495;28;1477;-68
2022/03/27 05:27:18;;;;;;;;;;;;;;;13.76;28.32;96146.66;2046974;28;1673;-68
2022/03/27 05:28:20;;;;;;;;;;;;;;;13.77;28.20;96149.19;2041884;29;1092;-68
2022/03/27 05:29:21;;;;;;;;;;;;;;;13.85;27.97;96145.81;2041829;29;1711;-68
2022/03/27 05:30:24;;;;;;;;;;;;;;;13.84;28.02;96144.16;2037330;29;1036;-68